createdAt,value
2023-05-05T00:07:01.707Z,78408.50
2023-05-05T00:17:06.168Z,78386.75
2023-05-05T00:27:09.176Z,78364.53
2023-05-05T00:37:13.633Z,78344.47
2023-05-05T00:47:16.893Z,78306.13
2023-05-05T00:57:21.625Z,78299.81
2023-05-05T01:07:37.284Z,78286.53
2023-05-05T01:17:46.793Z,78257.75
2023-05-05T01:28:02.000Z,78263.03
2023-05-05T01:38:10.752Z,78255.59
2023-05-05T01:48:16.413Z,78230.50
2023-05-05T01:58:23.182Z,78199.34
2023-05-05T02:08:27.349Z,78148.44
2023-05-05T02:18:35.852Z,78093.03
2023-05-05T02:28:43.837Z,78044.56
2023-05-05T02:38:54.663Z,78024.16
2023-05-05T02:49:02.210Z,77976.81
2023-05-05T02:59:15.992Z,77970.53
2023-05-05T03:09:31.587Z,77943.78
2023-05-05T03:19:38.615Z,77924.38
2023-05-05T03:29:41.642Z,77914.06
2023-05-05T03:39:50.543Z,77906.22
2023-05-05T03:49:53.768Z,77903.22
2023-05-05T03:59:58.333Z,77887.06
2023-05-05T04:10:02.923Z,77872.94
2023-05-05T04:20:09.469Z,77861.94
2023-05-05T04:30:13.318Z,77850.19
2023-05-05T04:40:18.937Z,77847.34
2023-05-05T04:50:22.075Z,77842.06
2023-05-05T05:00:27.638Z,77844.34
2023-05-05T05:10:30.643Z,77857.50
2023-05-05T05:20:35.248Z,77867.66
2023-05-05T05:30:38.510Z,77879.22
2023-05-05T05:40:44.724Z,77924.38
2023-05-05T05:50:48.072Z,77965.38
2023-05-05T06:00:52.563Z,78035.88
2023-05-05T06:10:55.835Z,78085.59
2023-05-05T06:21:02.146Z,78164.06
2023-05-05T06:31:08.242Z,78227.06
2023-05-05T06:41:18.153Z,78258.03
2023-05-05T06:51:28.030Z,78294.97
2023-05-05T07:01:36.176Z,78321.69
2023-05-05T07:11:42.701Z,78359.97
2023-05-05T07:21:53.184Z,78439.69
2023-05-05T07:31:57.876Z,78478.44
2023-05-05T07:42:09.394Z,78509.84
2023-05-05T07:52:14.118Z,78574.28
2023-05-05T08:02:24.469Z,78651.53
2023-05-05T08:12:30.924Z,78681.06
2023-05-05T08:22:42.800Z,78674.53
2023-05-05T08:32:47.203Z,78769.19
2023-05-05T08:42:57.653Z,78830.59
2023-05-05T08:53:10.595Z,78804.75
2023-05-05T09:03:17.070Z,78775.03
2023-05-05T09:13:20.567Z,78818.41
2023-05-05T09:23:31.466Z,78827.81
2023-05-05T09:33:37.722Z,78775.03
2023-05-05T09:43:53.133Z,78786.97
2023-05-05T09:53:56.781Z,78772.84
2023-05-05T10:04:04.166Z,78703.91
2023-05-05T10:14:11.841Z,78577.28
2023-05-05T10:24:27.161Z,78524.50
2023-05-05T10:34:38.928Z,78535.16
2023-05-05T10:44:44.021Z,78453.75
2023-05-05T10:54:51.281Z,78382.75
2023-05-05T11:05:10.257Z,78318.69
2023-05-05T11:15:37.995Z,78291.66
2023-05-05T11:25:51.427Z,78293.50
2023-05-05T11:35:57.988Z,78289.50
2023-05-05T11:46:31.687Z,78274.91
2023-05-05T11:56:50.872Z,78272.66
2023-05-05T12:06:55.842Z,78252.72
2023-05-05T12:17:01.413Z,78196.50
2023-05-05T12:27:13.496Z,78173.16
2023-05-05T12:37:19.207Z,78151.97
2023-05-05T12:47:32.957Z,78167.31
2023-05-05T12:57:36.622Z,78221.81
2023-05-05T13:07:52.762Z,78216.09
2023-05-05T13:18:01.145Z,78175.91
2023-05-05T13:28:06.284Z,78166.44
2023-05-05T13:38:09.324Z,78113.78
2023-05-05T13:48:13.914Z,78078.63
2023-05-05T13:58:20.010Z,78077.75
2023-05-05T14:08:31.526Z,78107.47
2023-05-05T14:18:37.634Z,78112.34
2023-05-05T14:28:48.311Z,78127.41
2023-05-05T14:38:52.793Z,78098.91
2023-05-05T14:49:03.366Z,78098.06
2023-05-05T14:59:09.927Z,78095.03
2023-05-05T15:09:20.499Z,78180.72
2023-05-05T15:19:26.672Z,78212.66
2023-05-05T15:29:35.648Z,78215.50
2023-05-05T15:39:44.588Z,78215.38
2023-05-05T15:49:51.782Z,78191.34
2023-05-05T16:00:03.635Z,78237.50
2023-05-05T16:10:12.231Z,78263.28
2023-05-05T16:20:15.285Z,78250.13
2023-05-05T16:30:26.484Z,78292.28
2023-05-05T16:40:32.617Z,78239.09
2023-05-05T16:50:43.681Z,78196.63
2023-05-05T17:00:49.565Z,78180.03
2023-05-05T17:11:03.280Z,78175.00
2023-05-05T17:21:06.934Z,78178.94
2023-05-05T17:31:14.849Z,78197.69
2023-05-05T17:41:27.147Z,78188.03
2023-05-05T17:51:31.751Z,78177.72
2023-05-05T18:01:38.121Z,78156.69
2023-05-05T18:11:49.721Z,78146.53
2023-05-05T18:21:55.485Z,78132.09
2023-05-05T18:32:07.660Z,78132.53
2023-05-05T18:42:10.718Z,78140.03
2023-05-05T18:52:22.904Z,78088.59
2023-05-05T19:02:27.383Z,78052.72
2023-05-05T19:12:31.865Z,78029.84
2023-05-05T19:22:35.019Z,77998.97
2023-05-05T19:32:39.476Z,77980.94
2023-05-05T19:42:42.608Z,77945.38
2023-05-05T19:52:47.166Z,77940.38
2023-05-05T20:02:50.362Z,77906.34
2023-05-05T20:12:54.933Z,77911.09
2023-05-05T20:23:00.900Z,77890.22
2023-05-05T20:33:05.613Z,77890.06
2023-05-05T20:43:08.714Z,77877.06
2023-05-05T20:53:15.029Z,77856.34
2023-05-05T21:03:18.130Z,77852.66
2023-05-05T21:13:22.957Z,77866.78
2023-05-05T21:23:26.240Z,77877.50
2023-05-05T21:33:30.662Z,77888.34
2023-05-05T21:43:33.683Z,77895.81
2023-05-05T21:53:39.053Z,77873.50
2023-05-05T22:03:43.680Z,77884.94
2023-05-05T22:13:48.552Z,77874.22
2023-05-05T22:23:51.474Z,77856.78
2023-05-05T22:33:55.885Z,77861.94
2023-05-05T22:43:58.851Z,77851.34
2023-05-05T22:54:03.261Z,77862.06
2023-05-05T23:04:06.564Z,77840.91
2023-05-05T23:14:11.007Z,77831.78
2023-05-05T23:24:14.065Z,77830.06
2023-05-05T23:34:18.484Z,77822.66
2023-05-05T23:44:21.504Z,77799.78
2023-05-05T23:54:26.166Z,77791.66
